sensor_id;sensor_type;location;lat;lon;timestamp;pressure;altitude;pressure_sealevel;temperature;humidity
60244;BME280;46106;51.468;5.814;2023-04-05T00:01:29;102128.88;;;3.45;100.00
60244;BME280;46106;51.468;5.814;2023-04-05T00:03:55;102136.13;;;3.45;100.00
60244;BME280;46106;51.468;5.814;2023-04-05T00:06:28;102131.88;;;3.36;100.00
60244;BME280;46106;51.468;5.814;2023-04-05T00:08:55;102115.13;;;3.22;100.00
60244;BME280;46106;51.468;5.814;2023-04-05T00:11:21;102132.03;;;3.30;100.00
60244;BME280;46106;51.468;5.814;2023-04-05T00:13:48;102136.09;;;3.13;100.00
60244;BME280;46106;51.468;5.814;2023-04-05T00:16:15;102131.59;;;3.12;100.00
60244;BME280;46106;51.468;5.814;2023-04-05T00:18:41;102119.81;;;3.15;100.00
60244;BME280;46106;51.468;5.814;2023-04-05T00:21:10;102118.66;;;3.24;100.00
60244;BME280;46106;51.468;5.814;2023-04-05T00:23:39;102108.97;;;3.17;100.00
60244;BME280;46106;51.468;5.814;2023-04-05T00:26:06;102111.16;;;3.02;100.00
60244;BME280;46106;51.468;5.814;2023-04-05T00:28:35;102114.66;;;3.06;100.00
60244;BME280;46106;51.468;5.814;2023-04-05T00:31:00;102117.06;;;3.17;100.00
60244;BME280;46106;51.468;5.814;2023-04-05T00:33:26;102115.56;;;3.05;100.00
60244;BME280;46106;51.468;5.814;2023-04-05T00:35:51;102118.59;;;2.94;100.00
60244;BME280;46106;51.468;5.814;2023-04-05T00:38:17;102115.13;;;2.89;100.00
60244;BME280;46106;51.468;5.814;2023-04-05T00:40:42;102108.56;;;2.98;100.00
60244;BME280;46106;51.468;5.814;2023-04-05T00:43:07;102110.88;;;3.11;100.00
60244;BME280;46106;51.468;5.814;2023-04-05T00:45:33;102101.16;;;3.04;100.00
60244;BME280;46106;51.468;5.814;2023-04-05T00:47:59;102109.88;;;3.16;100.00
60244;BME280;46106;51.468;5.814;2023-04-05T00:50:26;102112.00;;;3.04;100.00
60244;BME280;46106;51.468;5.814;2023-04-05T00:52:56;102104.06;;;2.97;100.00
60244;BME280;46106;51.468;5.814;2023-04-05T00:55:22;102102.19;;;3.00;100.00
60244;BME280;46106;51.468;5.814;2023-04-05T00:57:47;102095.44;;;2.84;100.00
60244;BME280;46106;51.468;5.814;2023-04-05T01:00:14;102096.31;;;2.84;100.00
60244;BME280;46106;51.468;5.814;2023-04-05T01:08:16;102098.22;;;2.81;100.00
60244;BME280;46106;51.468;5.814;2023-04-05T01:10:50;102101.34;;;2.64;100.00
60244;BME280;46106;51.468;5.814;2023-04-05T01:13:15;102085.19;;;2.61;100.00
60244;BME280;46106;51.468;5.814;2023-04-05T01:15:41;102088.91;;;2.56;100.00
60244;BME280;46106;51.468;5.814;2023-04-05T01:18:10;102093.28;;;2.61;100.00
60244;BME280;46106;51.468;5.814;2023-04-05T01:20:47;102088.03;;;2.56;100.00
60244;BME280;46106;51.468;5.814;2023-04-05T01:26:34;102094.09;;;2.66;100.00
60244;BME280;46106;51.468;5.814;2023-04-05T01:29:30;102091.59;;;2.58;100.00
60244;BME280;46106;51.468;5.814;2023-04-05T01:32:53;102084.19;;;2.65;100.00
60244;BME280;46106;51.468;5.814;2023-04-05T01:35:11;102094.47;;;2.85;100.00
60244;BME280;46106;51.468;5.814;2023-04-05T01:37:42;102079.13;;;2.51;100.00
60244;BME280;46106;51.468;5.814;2023-04-05T01:40:09;102067.47;;;2.49;100.00
60244;BME280;46106;51.468;5.814;2023-04-05T01:42:35;102086.44;;;2.47;100.00
60244;BME280;46106;51.468;5.814;2023-04-05T01:45:00;102082.97;;;2.42;100.00
60244;BME280;46106;51.468;5.814;2023-04-05T01:47:26;102081.94;;;2.48;100.00
60244;BME280;46106;51.468;5.814;2023-04-05T01:49:51;102071.50;;;2.32;100.00
60244;BME280;46106;51.468;5.814;2023-04-05T01:52:17;102077.63;;;2.39;100.00
60244;BME280;46106;51.468;5.814;2023-04-05T01:54:42;102074.16;;;2.34;100.00
60244;BME280;46106;51.468;5.814;2023-04-05T01:57:07;102077.66;;;2.37;100.00
60244;BME280;46106;51.468;5.814;2023-04-05T01:59:33;102075.94;;;2.35;100.00
60244;BME280;46106;51.468;5.814;2023-04-05T02:01:58;102078.44;;;2.43;100.00
60244;BME280;46106;51.468;5.814;2023-04-05T02:04:24;102073.41;;;2.29;100.00
60244;BME280;46106;51.468;5.814;2023-04-05T02:06:50;102077.81;;;2.33;100.00
60244;BME280;46106;51.468;5.814;2023-04-05T02:09:15;102074.16;;;2.34;100.00
60244;BME280;46106;51.468;5.814;2023-04-05T02:11:41;102068.53;;;2.43;100.00
60244;BME280;46106;51.468;5.814;2023-04-05T02:14:06;102066.84;;;2.37;100.00
60244;BME280;46106;51.468;5.814;2023-04-05T02:16:32;102069.72;;;2.33;100.00
60244;BME280;46106;51.468;5.814;2023-04-05T02:18:58;102067.56;;;2.46;100.00
60244;BME280;46106;51.468;5.814;2023-04-05T02:21:24;102063.16;;;2.42;100.00
60244;BME280;46106;51.468;5.814;2023-04-05T02:23:51;102075.19;;;2.30;100.00
60244;BME280;46106;51.468;5.814;2023-04-05T02:26:17;102067.81;;;2.36;100.00
60244;BME280;46106;51.468;5.814;2023-04-05T02:28:43;102068.94;;;2.26;100.00
60244;BME280;46106;51.468;5.814;2023-04-05T02:31:09;102066.41;;;2.20;100.00
60244;BME280;46106;51.468;5.814;2023-04-05T02:33:36;102058.44;;;2.14;100.00
60244;BME280;46106;51.468;5.814;2023-04-05T02:36:09;102060.00;;;2.24;100.00
60244;BME280;46106;51.468;5.814;2023-04-05T02:38:35;102068.03;;;2.27;100.00
60244;BME280;46106;51.468;5.814;2023-04-05T02:41:01;102061.16;;;2.14;100.00
60244;BME280;46106;51.468;5.814;2023-04-05T02:43:27;102059.16;;;2.22;100.00
60244;BME280;46106;51.468;5.814;2023-04-05T02:45:52;102058.50;;;2.12;100.00
60244;BME280;46106;51.468;5.814;2023-04-05T02:48:18;102053.19;;;2.08;100.00
60244;BME280;46106;51.468;5.814;2023-04-05T02:50:48;102058.66;;;2.05;100.00
60244;BME280;46106;51.468;5.814;2023-04-05T02:53:14;102052.34;;;2.06;100.00
60244;BME280;46106;51.468;5.814;2023-04-05T02:55:40;102045.19;;;2.03;100.00
60244;BME280;46106;51.468;5.814;2023-04-05T02:58:06;102058.38;;;2.17;100.00
60244;BME280;46106;51.468;5.814;2023-04-05T03:00:32;102045.97;;;2.08;100.00
60244;BME280;46106;51.468;5.814;2023-04-05T03:02:58;102043.63;;;1.94;100.00
60244;BME280;46106;51.468;5.814;2023-04-05T03:05:23;102040.19;;;1.88;100.00
60244;BME280;46106;51.468;5.814;2023-04-05T03:07:49;102036.34;;;1.96;100.00
60244;BME280;46106;51.468;5.814;2023-04-05T03:10:17;102040.69;;;2.04;100.00
60244;BME280;46106;51.468;5.814;2023-04-05T03:12:44;102043.75;;;1.88;100.00
60244;BME280;46106;51.468;5.814;2023-04-05T03:15:10;102035.84;;;1.80;100.00
60244;BME280;46106;51.468;5.814;2023-04-05T03:17:35;102034.91;;;1.81;100.00
60244;BME280;46106;51.468;5.814;2023-04-05T03:20:04;102024.03;;;1.84;100.00
60244;BME280;46106;51.468;5.814;2023-04-05T03:22:31;102035.06;;;1.74;100.00
60244;BME280;46106;51.468;5.814;2023-04-05T03:24:58;102033.28;;;1.74;100.00
60244;BME280;46106;51.468;5.814;2023-04-05T03:27:24;102033.66;;;1.57;100.00
60244;BME280;46106;51.468;5.814;2023-04-05T03:29:50;102031.53;;;1.31;100.00
60244;BME280;46106;51.468;5.814;2023-04-05T03:32:15;102030.63;;;1.32;100.00
60244;BME280;46106;51.468;5.814;2023-04-05T03:34:41;102026.22;;;1.28;100.00
60244;BME280;46106;51.468;5.814;2023-04-05T03:37:06;102016.25;;;1.32;100.00
60244;BME280;46106;51.468;5.814;2023-04-05T03:39:35;102028.44;;;1.50;100.00
60244;BME280;46106;51.468;5.814;2023-04-05T03:42:01;102024.75;;;1.54;100.00
60244;BME280;46106;51.468;5.814;2023-04-05T03:44:26;102022.78;;;1.60;100.00
60244;BME280;46106;51.468;5.814;2023-04-05T03:46:52;102019.13;;;1.64;100.00
60244;BME280;46106;51.468;5.814;2023-04-05T03:49:17;102021.94;;;1.58;100.00
60244;BME280;46106;51.468;5.814;2023-04-05T03:51:44;102024.13;;;1.41;100.00
60244;BME280;46106;51.468;5.814;2023-04-05T03:54:10;102016.97;;;1.40;100.00
60244;BME280;46106;51.468;5.814;2023-04-05T03:56:39;102014.19;;;1.44;100.00
60244;BME280;46106;51.468;5.814;2023-04-05T03:59:04;102018.03;;;1.31;100.00
60244;BME280;46106;51.468;5.814;2023-04-05T04:01:30;101996.44;;;1.33;100.00
60244;BME280;46106;51.468;5.814;2023-04-05T04:03:56;102006.44;;;1.27;100.00
60244;BME280;46106;51.468;5.814;2023-04-05T04:06:21;102015.50;;;1.25;100.00
60244;BME280;46106;51.468;5.814;2023-04-05T04:08:51;102002.06;;;1.22;100.00
60244;BME280;46106;51.468;5.814;2023-04-05T04:11:17;101992.88;;;1.31;100.00
60244;BME280;46106;51.468;5.814;2023-04-05T04:13:42;102000.84;;;1.37;100.00
60244;BME280;46106;51.468;5.814;2023-04-05T04:16:08;101991.94;;;1.33;100.00
60244;BME280;46106;51.468;5.814;2023-04-05T04:18:33;101999.13;;;1.33;100.00
60244;BME280;46106;51.468;5.814;2023-04-05T04:21:01;102001.06;;;1.26;100.00
60244;BME280;46106;51.468;5.814;2023-04-05T04:23:31;101999.47;;;1.17;100.00
60244;BME280;46106;51.468;5.814;2023-04-05T04:25:59;102003.00;;;1.21;100.00
60244;BME280;46106;51.468;5.814;2023-04-05T04:28:26;101997.97;;;1.04;100.00
60244;BME280;46106;51.468;5.814;2023-04-05T04:30:52;101992.50;;;1.07;100.00
60244;BME280;46106;51.468;5.814;2023-04-05T04:33:17;102003.28;;;1.07;100.00
60244;BME280;46106;51.468;5.814;2023-04-05T04:35:44;101999.59;;;1.11;100.00
60244;BME280;46106;51.468;5.814;2023-04-05T04:38:11;102005.81;;;1.15;100.00
60244;BME280;46106;51.468;5.814;2023-04-05T04:40:43;101967.31;;;1.06;100.00
60244;BME280;46106;51.468;5.814;2023-04-05T04:43:14;101998.56;;;1.18;100.00
60244;BME280;46106;51.468;5.814;2023-04-05T04:45:46;101995.88;;;1.18;100.00
60244;BME280;46106;51.468;5.814;2023-04-05T04:48:13;101982.94;;;0.92;100.00
60244;BME280;46106;51.468;5.814;2023-04-05T04:50:41;101988.94;;;1.05;100.00
60244;BME280;46106;51.468;5.814;2023-04-05T04:53:08;102008.53;;;1.13;100.00
60244;BME280;46106;51.468;5.814;2023-04-05T04:55:34;102001.22;;;1.20;100.00
60244;BME280;46106;51.468;5.814;2023-04-05T04:58:00;102003.41;;;1.01;100.00
60244;BME280;46106;51.468;5.814;2023-04-05T05:00:26;102003.00;;;0.77;100.00
60244;BME280;46106;51.468;5.814;2023-04-05T05:02:52;102007.38;;;0.83;100.00
60244;BME280;46106;51.468;5.814;2023-04-05T05:05:18;102003.53;;;0.95;100.00
60244;BME280;46106;51.468;5.814;2023-04-05T05:07:47;102005.38;;;0.93;100.00
60244;BME280;46106;51.468;5.814;2023-04-05T05:10:12;102012.69;;;0.87;100.00
60244;BME280;46106;51.468;5.814;2023-04-05T05:12:41;101995.81;;;0.76;100.00
60244;BME280;46106;51.468;5.814;2023-04-05T05:15:07;102004.69;;;0.83;100.00
60244;BME280;46106;51.468;5.814;2023-04-05T05:17:33;101995.56;;;0.88;100.00
60244;BME280;46106;51.468;5.814;2023-04-05T05:20:00;102002.53;;;1.00;100.00
60244;BME280;46106;51.468;5.814;2023-04-05T05:22:26;102009.75;;;0.98;100.00
60244;BME280;46106;51.468;5.814;2023-04-05T05:24:52;102013.53;;;0.89;100.00
60244;BME280;46106;51.468;5.814;2023-04-05T05:27:18;102007.28;;;0.87;100.00
60244;BME280;46106;51.468;5.814;2023-04-05T05:29:44;102014.59;;;0.81;100.00
60244;BME280;46106;51.468;5.814;2023-04-05T05:32:09;102007.09;;;0.95;100.00
60244;BME280;46106;51.468;5.814;2023-04-05T05:34:40;102014.69;;;0.76;100.00
60244;BME280;46106;51.468;5.814;2023-04-05T05:37:06;102003.78;;;0.82;100.00
60244;BME280;46106;51.468;5.814;2023-04-05T05:39:34;102018.19;;;0.81;100.00
60244;BME280;46106;51.468;5.814;2023-04-05T05:41:59;102016.59;;;0.71;100.00
60244;BME280;46106;51.468;5.814;2023-04-05T05:44:25;102004.63;;;0.86;100.00
60244;BME280;46106;51.468;5.814;2023-04-05T05:46:50;101992.69;;;0.98;100.00
60244;BME280;46106;51.468;5.814;2023-04-05T05:49:16;102003.34;;;1.04;100.00
60244;BME280;46106;51.468;5.814;2023-04-05T05:51:41;102003.94;;;1.20;100.00
60244;BME280;46106;51.468;5.814;2023-04-05T05:54:07;102001.28;;;1.17;100.00
60244;BME280;46106;51.468;5.814;2023-04-05T05:56:35;102009.19;;;1.24;100.00
60244;BME280;46106;51.468;5.814;2023-04-05T05:59:00;102002.63;;;1.38;100.00
60244;BME280;46106;51.468;5.814;2023-04-05T06:01:26;102007.25;;;1.72;100.00
60244;BME280;46106;51.468;5.814;2023-04-05T06:06:27;102008.06;;;2.11;100.00
60244;BME280;46106;51.468;5.814;2023-04-05T06:11:22;102012.56;;;2.47;100.00
60244;BME280;46106;51.468;5.814;2023-04-05T06:13:49;102008.13;;;2.44;100.00
60244;BME280;46106;51.468;5.814;2023-04-05T06:16:20;102002.25;;;2.63;100.00
60244;BME280;46106;51.468;5.814;2023-04-05T06:18:45;101987.28;;;2.82;100.00
60244;BME280;46106;51.468;5.814;2023-04-05T06:21:11;101993.47;;;3.17;100.00
60244;BME280;46106;51.468;5.814;2023-04-05T06:23:37;102005.75;;;3.29;100.00
60244;BME280;46106;51.468;5.814;2023-04-05T06:26:03;102005.47;;;3.38;100.00
60244;BME280;46106;51.468;5.814;2023-04-05T06:28:28;102003.41;;;3.46;100.00
60244;BME280;46106;51.468;5.814;2023-04-05T06:30:56;101989.94;;;3.73;100.00
60244;BME280;46106;51.468;5.814;2023-04-05T06:33:22;102003.16;;;3.54;100.00
60244;BME280;46106;51.468;5.814;2023-04-05T06:35:48;101998.47;;;3.89;100.00
60244;BME280;46106;51.468;5.814;2023-04-05T06:38:13;101996.00;;;4.08;100.00
60244;BME280;46106;51.468;5.814;2023-04-05T06:40:39;101999.63;;;4.09;100.00
60244;BME280;46106;51.468;5.814;2023-04-05T06:43:04;102002.19;;;4.13;100.00
60244;BME280;46106;51.468;5.814;2023-04-05T06:45:30;102000.38;;;4.39;100.00
60244;BME280;46106;51.468;5.814;2023-04-05T06:47:55;102001.81;;;4.49;100.00
60244;BME280;46106;51.468;5.814;2023-04-05T06:50:21;102002.53;;;4.81;100.00
60244;BME280;46106;51.468;5.814;2023-04-05T06:52:46;102000.19;;;4.95;100.00
60244;BME280;46106;51.468;5.814;2023-04-05T06:55:12;101991.44;;;4.87;100.00
60244;BME280;46106;51.468;5.814;2023-04-05T06:57:37;102004.84;;;5.39;100.00
60244;BME280;46106;51.468;5.814;2023-04-05T07:00:03;102007.16;;;5.50;100.00
60244;BME280;46106;51.468;5.814;2023-04-05T07:02:38;101997.63;;;5.40;100.00
60244;BME280;46106;51.468;5.814;2023-04-05T07:05:04;102002.84;;;5.68;100.00
60244;BME280;46106;51.468;5.814;2023-04-05T07:07:31;102010.09;;;5.89;100.00
60244;BME280;46106;51.468;5.814;2023-04-05T07:09:57;102013.31;;;6.01;100.00
60244;BME280;46106;51.468;5.814;2023-04-05T07:12:23;102017.28;;;5.92;100.00
60244;BME280;46106;51.468;5.814;2023-04-05T07:14:48;102012.72;;;6.37;100.00
60244;BME280;46106;51.468;5.814;2023-04-05T07:17:14;102010.91;;;6.58;100.00
60244;BME280;46106;51.468;5.814;2023-04-05T07:19:39;102009.66;;;6.44;100.00
60244;BME280;46106;51.468;5.814;2023-04-05T07:22:05;102013.41;;;6.42;100.00
60244;BME280;46106;51.468;5.814;2023-04-05T07:24:31;102005.63;;;7.15;98.72
60244;BME280;46106;51.468;5.814;2023-04-05T07:26:56;102009.78;;;7.03;99.82
60244;BME280;46106;51.468;5.814;2023-04-05T07:29:22;102011.69;;;7.01;100.00
60244;BME280;46106;51.468;5.814;2023-04-05T07:31:48;102010.53;;;7.46;97.75
60244;BME280;46106;51.468;5.814;2023-04-05T07:34:13;102009.69;;;7.44;93.98
60244;BME280;46106;51.468;5.814;2023-04-05T07:36:39;102010.31;;;7.11;100.00
60244;BME280;46106;51.468;5.814;2023-04-05T07:39:05;101985.09;;;7.27;99.49
60244;BME280;46106;51.468;5.814;2023-04-05T07:41:30;102008.53;;;7.50;100.00
60244;BME280;46106;51.468;5.814;2023-04-05T07:44:00;102008.53;;;8.42;90.54
60244;BME280;46106;51.468;5.814;2023-04-05T07:46:26;102010.44;;;9.10;81.03
60244;BME280;46106;51.468;5.814;2023-04-05T07:48:52;102010.91;;;9.51;72.46
60244;BME280;46106;51.468;5.814;2023-04-05T07:51:17;102007.38;;;9.16;76.53
60244;BME280;46106;51.468;5.814;2023-04-05T07:53:43;102006.03;;;8.37;80.45
60244;BME280;46106;51.468;5.814;2023-04-05T07:56:09;102004.44;;;9.03;75.85
60244;BME280;46106;51.468;5.814;2023-04-05T07:58:36;101981.09;;;8.97;75.42
60244;BME280;46106;51.468;5.814;2023-04-05T08:01:06;102010.59;;;9.24;73.38
60244;BME280;46106;51.468;5.814;2023-04-05T08:03:33;102004.75;;;9.14;71.76
60244;BME280;46106;51.468;5.814;2023-04-05T08:06:12;102001.13;;;10.57;67.97
60244;BME280;46106;51.468;5.814;2023-04-05T08:08:38;102005.09;;;9.89;70.48
60244;BME280;46106;51.468;5.814;2023-04-05T08:11:04;102006.66;;;10.41;70.49
60244;BME280;46106;51.468;5.814;2023-04-05T08:13:29;102005.06;;;10.37;67.74
60244;BME280;46106;51.468;5.814;2023-04-05T08:15:55;102006.16;;;9.87;70.01
60244;BME280;46106;51.468;5.814;2023-04-05T08:18:21;102004.22;;;9.73;69.85
60244;BME280;46106;51.468;5.814;2023-04-05T08:20:52;101995.28;;;10.01;66.50
60244;BME280;46106;51.468;5.814;2023-04-05T08:23:18;101998.63;;;9.43;73.73
60244;BME280;46106;51.468;5.814;2023-04-05T08:25:43;102000.69;;;10.65;66.13
60244;BME280;46106;51.468;5.814;2023-04-05T08:28:09;102005.66;;;11.32;59.25
60244;BME280;46106;51.468;5.814;2023-04-05T08:30:35;102004.78;;;10.58;60.98
60244;BME280;46106;51.468;5.814;2023-04-05T08:33:01;102005.31;;;10.93;59.68
60244;BME280;46106;51.468;5.814;2023-04-05T08:35:26;102007.31;;;11.63;56.80
60244;BME280;46106;51.468;5.814;2023-04-05T08:37:53;102017.19;;;10.94;56.17
60244;BME280;46106;51.468;5.814;2023-04-05T08:40:19;102012.88;;;11.76;53.84
60244;BME280;46106;51.468;5.814;2023-04-05T08:42:56;101996.78;;;10.83;54.36
60244;BME280;46106;51.468;5.814;2023-04-05T08:45:22;101988.22;;;11.33;53.70
60244;BME280;46106;51.468;5.814;2023-04-05T08:47:51;101990.38;;;11.13;54.25
60244;BME280;46106;51.468;5.814;2023-04-05T08:50:20;101995.22;;;11.66;53.84
60244;BME280;46106;51.468;5.814;2023-04-05T08:52:46;101996.22;;;11.65;52.14
60244;BME280;46106;51.468;5.814;2023-04-05T08:55:15;101997.09;;;11.80;51.66
60244;BME280;46106;51.468;5.814;2023-04-05T08:57:43;102005.47;;;12.32;51.04
60244;BME280;46106;51.468;5.814;2023-04-05T09:00:12;102001.19;;;13.71;44.95
60244;BME280;46106;51.468;5.814;2023-04-05T09:02:39;101997.06;;;14.27;42.41
60244;BME280;46106;51.468;5.814;2023-04-05T09:05:08;101998.09;;;12.60;45.27
60244;BME280;46106;51.468;5.814;2023-04-05T09:07:34;101995.88;;;11.84;48.34
60244;BME280;46106;51.468;5.814;2023-04-05T09:10:01;101997.47;;;12.69;46.46
60244;BME280;46106;51.468;5.814;2023-04-05T09:12:27;102001.44;;;12.11;47.66
60244;BME280;46106;51.468;5.814;2023-04-05T09:14:53;102000.22;;;12.95;46.92
60244;BME280;46106;51.468;5.814;2023-04-05T09:17:20;101996.28;;;12.99;44.74
60244;BME280;46106;51.468;5.814;2023-04-05T09:19:47;101991.84;;;12.31;47.30
60244;BME280;46106;51.468;5.814;2023-04-05T09:22:15;101988.84;;;12.48;48.45
60244;BME280;46106;51.468;5.814;2023-04-05T09:24:44;101994.63;;;13.61;42.57
60244;BME280;46106;51.468;5.814;2023-04-05T09:27:15;101988.22;;;12.58;41.68
60244;BME280;46106;51.468;5.814;2023-04-05T09:29:43;101996.56;;;12.29;43.15
60244;BME280;46106;51.468;5.814;2023-04-05T09:32:11;101984.19;;;12.89;43.68
60244;BME280;46106;51.468;5.814;2023-04-05T09:34:37;101990.25;;;13.95;42.25
60244;BME280;46106;51.468;5.814;2023-04-05T09:37:23;101992.88;;;14.69;36.92
60244;BME280;46106;51.468;5.814;2023-04-05T09:39:50;101990.75;;;14.25;38.26
60244;BME280;46106;51.468;5.814;2023-04-05T09:42:18;101973.97;;;13.04;39.61
60244;BME280;46106;51.468;5.814;2023-04-05T09:47:16;101987.88;;;13.78;37.78
60244;BME280;46106;51.468;5.814;2023-04-05T09:49:42;101979.81;;;13.75;38.67
60244;BME280;46106;51.468;5.814;2023-04-05T09:52:25;101969.78;;;13.37;38.77
60244;BME280;46106;51.468;5.814;2023-04-05T09:54:52;101977.44;;;13.57;38.11
60244;BME280;46106;51.468;5.814;2023-04-05T09:57:21;101970.56;;;13.00;40.19
60244;BME280;46106;51.468;5.814;2023-04-05T09:59:47;101970.53;;;13.26;38.00
60244;BME280;46106;51.468;5.814;2023-04-05T10:02:13;101972.06;;;13.30;38.74
60244;BME280;46106;51.468;5.814;2023-04-05T10:04:41;101974.16;;;13.52;37.24
60244;BME280;46106;51.468;5.814;2023-04-05T10:07:11;101967.09;;;12.18;40.54
60244;BME280;46106;51.468;5.814;2023-04-05T10:09:42;101958.97;;;13.08;39.32
60244;BME280;46106;51.468;5.814;2023-04-05T10:12:09;101971.06;;;12.80;38.19
60244;BME280;46106;51.468;5.814;2023-04-05T10:14:37;101964.06;;;13.77;37.65
60244;BME280;46106;51.468;5.814;2023-04-05T10:19:59;101964.50;;;14.32;35.06
60244;BME280;46106;51.468;5.814;2023-04-05T10:22:34;101962.63;;;14.32;36.61
60244;BME280;46106;51.468;5.814;2023-04-05T10:25:07;101957.66;;;12.88;37.89
60244;BME280;46106;51.468;5.814;2023-04-05T10:27:46;101950.50;;;13.24;38.51
60244;BME280;46106;51.468;5.814;2023-04-05T10:30:12;101942.38;;;13.48;38.08
60244;BME280;46106;51.468;5.814;2023-04-05T10:32:58;101953.78;;;13.68;37.58
60244;BME280;46106;51.468;5.814;2023-04-05T10:40:22;101945.41;;;13.69;36.94
60244;BME280;46106;51.468;5.814;2023-04-05T10:42:49;101947.66;;;14.48;35.16
60244;BME280;46106;51.468;5.814;2023-04-05T10:45:17;101949.34;;;13.65;36.81
60244;BME280;46106;51.468;5.814;2023-04-05T10:47:49;101937.84;;;13.84;36.41
60244;BME280;46106;51.468;5.814;2023-04-05T10:50:22;101936.53;;;13.53;38.24
60244;BME280;46106;51.468;5.814;2023-04-05T10:52:48;101938.84;;;14.31;37.42
60244;BME280;46106;51.468;5.814;2023-04-05T10:55:15;101939.25;;;14.14;37.43
60244;BME280;46106;51.468;5.814;2023-04-05T10:57:42;101929.81;;;13.81;38.08
60244;BME280;46106;51.468;5.814;2023-04-05T11:00:09;101932.81;;;13.15;36.92
60244;BME280;46106;51.468;5.814;2023-04-05T11:02:36;101924.03;;;12.84;36.80
60244;BME280;46106;51.468;5.814;2023-04-05T11:05:05;101921.28;;;12.84;37.86
60244;BME280;46106;51.468;5.814;2023-04-05T11:07:44;101926.97;;;13.83;36.70
60244;BME280;46106;51.468;5.814;2023-04-05T11:10:16;101918.50;;;13.23;38.52
60244;BME280;46106;51.468;5.814;2023-04-05T11:18:11;101911.28;;;12.83;39.76
60244;BME280;46106;51.468;5.814;2023-04-05T11:20:53;101920.03;;;14.01;36.43
60244;BME280;46106;51.468;5.814;2023-04-05T11:23:23;101912.06;;;13.85;36.88
60244;BME280;46106;51.468;5.814;2023-04-05T11:25:52;101908.44;;;13.85;39.12
60244;BME280;46106;51.468;5.814;2023-04-05T11:28:27;101901.06;;;12.85;39.29
60244;BME280;46106;51.468;5.814;2023-04-05T11:30:53;101901.19;;;12.84;38.23
60244;BME280;46106;51.468;5.814;2023-04-05T11:36:04;101898.28;;;12.98;36.85
60244;BME280;46106;51.468;5.814;2023-04-05T11:38:30;101898.97;;;12.76;37.42
60244;BME280;46106;51.468;5.814;2023-04-05T11:41:14;101890.56;;;13.16;36.91
60244;BME280;46106;51.468;5.814;2023-04-05T11:43:43;101894.56;;;12.74;37.62
60244;BME280;46106;51.468;5.814;2023-04-05T11:46:09;101892.66;;;12.36;36.40
60244;BME280;46106;51.468;5.814;2023-04-05T11:48:34;101887.28;;;12.34;39.18
60244;BME280;46106;51.468;5.814;2023-04-05T11:51:06;101878.31;;;12.58;39.18
60244;BME280;46106;51.468;5.814;2023-04-05T11:53:33;101867.53;;;12.67;38.22
60244;BME280;46106;51.468;5.814;2023-04-05T11:56:06;101867.31;;;12.58;39.83
60244;BME280;46106;51.468;5.814;2023-04-05T11:58:33;101860.03;;;11.91;39.69
60244;BME280;46106;51.468;5.814;2023-04-05T12:01:04;101862.75;;;12.18;40.54
60244;BME280;46106;51.468;5.814;2023-04-05T12:03:30;101852.56;;;12.20;38.60
60244;BME280;46106;51.468;5.814;2023-04-05T12:06:00;101845.81;;;11.99;38.69
60244;BME280;46106;51.468;5.814;2023-04-05T12:08:39;101847.06;;;12.20;40.63
60244;BME280;46106;51.468;5.814;2023-04-05T12:11:07;101868.09;;;11.94;37.81
60244;BME280;46106;51.468;5.814;2023-04-05T12:13:33;101847.22;;;11.64;38.91
60244;BME280;46106;51.468;5.814;2023-04-05T12:16:02;101857.03;;;12.08;39.03
60244;BME280;46106;51.468;5.814;2023-04-05T12:18:35;101855.81;;;12.00;37.64
60244;BME280;46106;51.468;5.814;2023-04-05T12:21:01;101854.28;;;11.95;37.25
60244;BME280;46106;51.468;5.814;2023-04-05T12:23:27;101850.53;;;11.97;37.98
60244;BME280;46106;51.468;5.814;2023-04-05T12:25:54;101852.97;;;12.14;38.80
60244;BME280;46106;51.468;5.814;2023-04-05T12:28:21;101847.50;;;12.53;37.43
60244;BME280;46106;51.468;5.814;2023-04-05T12:30:54;101837.97;;;12.45;37.63
60244;BME280;46106;51.468;5.814;2023-04-05T12:33:31;101834.88;;;12.37;38.34
60244;BME280;46106;51.468;5.814;2023-04-05T12:35:58;101849.81;;;12.46;37.21
60244;BME280;46106;51.468;5.814;2023-04-05T12:38:28;101832.03;;;12.64;39.05
60244;BME280;46106;51.468;5.814;2023-04-05T12:40:59;101833.47;;;12.31;38.89
60244;BME280;46106;51.468;5.814;2023-04-05T12:43:41;101832.59;;;12.57;39.27
60244;BME280;46106;51.468;5.814;2023-04-05T12:46:10;101836.31;;;12.30;38.00
60244;BME280;46106;51.468;5.814;2023-04-05T12:48:37;101830.88;;;12.03;38.21
60244;BME280;46106;51.468;5.814;2023-04-05T12:51:03;101809.59;;;12.06;40.29
60244;BME280;46106;51.468;5.814;2023-04-05T12:53:29;101812.34;;;12.06;39.74
60244;BME280;46106;51.468;5.814;2023-04-05T12:55:56;101826.09;;;12.19;38.57
60244;BME280;46106;51.468;5.814;2023-04-05T12:58:31;101822.56;;;12.17;36.65
60244;BME280;46106;51.468;5.814;2023-04-05T13:01:02;101808.09;;;11.88;36.82
60244;BME280;46106;51.468;5.814;2023-04-05T13:03:28;101811.53;;;11.91;38.34
60244;BME280;46106;51.468;5.814;2023-04-05T13:05:53;101804.19;;;12.05;39.16
60244;BME280;46106;51.468;5.814;2023-04-05T13:08:19;101802.69;;;12.39;39.44
60244;BME280;46106;51.468;5.814;2023-04-05T13:10:46;101802.59;;;12.15;39.48
60244;BME280;46106;51.468;5.814;2023-04-05T13:13:13;101799.63;;;12.31;39.14
60244;BME280;46106;51.468;5.814;2023-04-05T13:15:38;101787.19;;;12.12;38.22
60244;BME280;46106;51.468;5.814;2023-04-05T13:18:04;101794.00;;;12.20;37.80
60244;BME280;46106;51.468;5.814;2023-04-05T13:20:30;101789.28;;;12.35;37.24
60244;BME280;46106;51.468;5.814;2023-04-05T13:22:56;101795.00;;;12.19;39.63
60244;BME280;46106;51.468;5.814;2023-04-05T13:25:22;101779.09;;;12.24;38.84